createdAt,value
2022-08-09T00:00:05.026Z,21.4
2022-08-09T00:01:01.625Z,21.5
2022-08-09T00:02:01.712Z,21.5
2022-08-09T00:03:01.728Z,21.5
2022-08-09T00:04:06.274Z,21.1
2022-08-09T00:05:03.787Z,21.3
2022-08-09T00:06:17.027Z,21.4
2022-08-09T00:07:02.127Z,21.3
2022-08-09T00:08:02.002Z,21.3
2022-08-09T00:09:02.266Z,21.2
2022-08-09T00:10:01.825Z,21.2
2022-08-09T00:11:05.703Z,21.1
2022-08-09T00:12:04.198Z,21.2
2022-08-09T00:13:01.869Z,21.2
2022-08-09T00:14:01.642Z,21.2
2022-08-09T00:15:06.237Z,21.2
2022-08-09T00:16:03.045Z,21.2
2022-08-09T00:17:01.828Z,21.1
2022-08-09T00:18:04.757Z,21
2022-08-09T00:19:02.180Z,20.9
2022-08-09T00:20:02.139Z,20.9
2022-08-09T00:21:02.286Z,21
2022-08-09T00:22:01.655Z,21.1
2022-08-09T00:23:07.872Z,21.1
2022-08-09T00:24:00.602Z,21.1
2022-08-09T00:25:03.884Z,21.1
2022-08-09T00:26:01.399Z,20.6
2022-08-09T00:27:02.116Z,20.9
2022-08-09T00:28:04.023Z,21
2022-08-09T00:29:01.409Z,21
2022-08-09T00:30:16.667Z,21
2022-08-09T00:31:01.619Z,20.8
2022-08-09T00:32:01.478Z,20.9
2022-08-09T00:33:01.784Z,20.7
2022-08-09T00:34:02.434Z,20.9
2022-08-09T00:35:01.407Z,20.4
2022-08-09T00:36:02.026Z,20.5
2022-08-09T00:37:02.011Z,20.8
2022-08-09T00:38:01.408Z,20.6
2022-08-09T00:39:01.477Z,20
2022-08-09T00:40:09.946Z,20.4
2022-08-09T00:41:01.500Z,20.7
2022-08-09T00:44:09.217Z,20.8
2022-08-09T00:44:09.368Z,20.6
2022-08-09T00:44:09.684Z,20.6
2022-08-09T00:45:03.507Z,20.7
2022-08-09T00:46:02.231Z,20.8
2022-08-09T00:47:04.638Z,20.9
2022-08-09T00:48:01.605Z,20.9
2022-08-09T00:49:01.674Z,21.1
2022-08-09T00:50:02.291Z,20.9
2022-08-09T00:51:01.527Z,20.9
2022-08-09T00:52:02.010Z,21
2022-08-09T00:53:08.625Z,21
2022-08-09T00:54:01.588Z,20.9
2022-08-09T00:55:01.633Z,21
2022-08-09T00:56:04.323Z,21
2022-08-09T00:57:01.771Z,21
2022-08-09T00:58:01.570Z,20.8
2022-08-09T00:59:01.504Z,21
2022-08-09T01:00:02.901Z,21.1
2022-08-09T01:01:03.239Z,21
2022-08-09T01:02:01.572Z,21
2022-08-09T01:03:01.706Z,21.1
2022-08-09T01:04:01.645Z,21
2022-08-09T01:05:02.578Z,21
2022-08-09T01:06:03.744Z,20.9
2022-08-09T01:07:02.153Z,21
2022-08-09T01:08:02.322Z,21
2022-08-09T01:09:02.151Z,20.9
2022-08-09T01:10:01.451Z,21
2022-08-09T01:11:02.448Z,20.9
2022-08-09T01:12:02.287Z,20.9
2022-08-09T01:13:02.254Z,20.9
2022-08-09T01:14:02.133Z,20.9
2022-08-09T01:15:04.155Z,20.9
2022-08-09T01:16:01.573Z,20.9
2022-08-09T01:17:01.539Z,20.9
2022-08-09T01:18:02.024Z,20.8
2022-08-09T01:19:04.621Z,20.9
2022-08-09T01:20:03.049Z,20.8
2022-08-09T01:21:02.358Z,20.9
2022-08-09T01:22:01.979Z,20.9
2022-08-09T01:23:02.101Z,20.7
2022-08-09T01:24:04.828Z,20.9
2022-08-09T01:25:02.074Z,20.8
2022-08-09T01:26:01.726Z,20.8
2022-08-09T01:27:01.688Z,20.8
2022-08-09T01:28:01.631Z,20.7
2022-08-09T01:29:01.725Z,20.8
2022-08-09T01:30:02.096Z,20.8
2022-08-09T01:31:01.831Z,20.8
2022-08-09T01:32:30.436Z,20.8
2022-08-09T01:33:01.580Z,20.8
2022-08-09T01:34:01.535Z,20.8
2022-08-09T01:35:06.811Z,20.7
2022-08-09T01:36:01.558Z,20.7
2022-08-09T01:37:01.528Z,20.7
2022-08-09T01:38:06.228Z,20.8
2022-08-09T01:39:01.354Z,20.6
2022-08-09T01:40:02.435Z,20.7
2022-08-09T01:41:03.254Z,20.7
2022-08-09T01:42:05.179Z,20.7
2022-08-09T01:43:02.164Z,20.7
2022-08-09T01:44:02.138Z,20.7
2022-08-09T01:45:01.978Z,20.6
2022-08-09T01:46:01.884Z,20.5
2022-08-09T01:47:01.591Z,20.5
2022-08-09T01:48:01.619Z,20.5
2022-08-09T01:49:09.823Z,20.5
2022-08-09T01:50:01.328Z,20.6
2022-08-09T01:51:02.573Z,20.7
2022-08-09T01:52:06.952Z,20.7
2022-08-09T01:53:01.551Z,20.8
2022-08-09T01:54:02.229Z,20.7
2022-08-09T01:55:02.177Z,20.6
2022-08-09T01:56:02.020Z,20.7
2022-08-09T01:57:03.914Z,20.6
2022-08-09T01:58:02.078Z,20.6
2022-08-09T01:59:01.440Z,20.7
2022-08-09T02:00:09.159Z,20.4
2022-08-09T02:01:01.973Z,20.6
2022-08-09T02:02:02.453Z,20.5
2022-08-09T02:03:02.158Z,20.4
2022-08-09T02:04:02.153Z,20.4
2022-08-09T02:05:04.895Z,20.3
2022-08-09T02:06:03.498Z,20.4
2022-08-09T02:07:02.071Z,20.4
2022-08-09T02:08:36.180Z,20.4
2022-08-09T02:09:01.982Z,20.5
2022-08-09T02:10:03.746Z,20.5
2022-08-09T02:11:02.419Z,20.6
2022-08-09T02:12:02.276Z,20.4
2022-08-09T02:13:01.840Z,20.4
2022-08-09T02:14:06.779Z,20.4
2022-08-09T02:15:02.009Z,20.3
2022-08-09T02:16:01.630Z,20.4
2022-08-09T02:17:14.543Z,20.4
2022-08-09T02:18:10.104Z,20.4
2022-08-09T02:19:01.640Z,20.4
2022-08-09T02:20:02.182Z,20.2
2022-08-09T02:21:02.299Z,20.3
2022-08-09T02:22:02.124Z,20.5
2022-08-09T02:23:02.123Z,20.4
2022-08-09T02:24:01.921Z,20.3
2022-08-09T02:25:02.053Z,20.1
2022-08-09T02:26:02.474Z,19.8
2022-08-09T02:27:02.166Z,19.8
2022-08-09T02:28:03.992Z,19.4
2022-08-09T02:29:01.863Z,18.6
2022-08-09T02:30:01.842Z,18.9
2022-08-09T02:31:02.049Z,19.3
2022-08-09T02:32:01.505Z,19.6
2022-08-09T02:33:01.584Z,19.6
2022-08-09T02:34:06.830Z,19.8
2022-08-09T02:35:01.862Z,19.9
2022-08-09T02:36:03.942Z,19.8
2022-08-09T02:37:01.896Z,19.9
2022-08-09T02:38:02.064Z,19.7
2022-08-09T02:39:02.159Z,19.7
2022-08-09T02:40:03.078Z,19.6
2022-08-09T02:41:02.121Z,19.8
2022-08-09T02:42:02.603Z,19.9
2022-08-09T02:43:01.435Z,20
2022-08-09T02:44:06.588Z,19.8
2022-08-09T02:45:01.954Z,19.7
2022-08-09T02:46:01.334Z,19.9
2022-08-09T02:47:01.588Z,19.8
2022-08-09T02:48:02.306Z,20
2022-08-09T02:49:02.757Z,20
2022-08-09T02:50:02.250Z,20.1
2022-08-09T02:51:02.445Z,20.1
2022-08-09T02:52:01.497Z,20.1
2022-08-09T02:53:01.724Z,20
2022-08-09T02:54:01.717Z,20
2022-08-09T02:55:03.029Z,20.1
2022-08-09T02:56:01.890Z,19.9
2022-08-09T02:57:01.956Z,19.8
2022-08-09T02:58:33.275Z,19.7
2022-08-09T02:59:01.750Z,19.7
2022-08-09T03:00:21.740Z,19.8
2022-08-09T03:01:04.125Z,19.9
2022-08-09T03:02:05.820Z,20
2022-08-09T03:03:01.497Z,20
2022-08-09T03:04:13.483Z,20.1
2022-08-09T03:05:01.713Z,19.9
2022-08-09T03:06:02.257Z,19.9
2022-08-09T03:07:12.654Z,19.8
2022-08-09T03:08:01.362Z,20
2022-08-09T03:09:02.133Z,20
2022-08-09T03:10:01.373Z,20.1
2022-08-09T03:11:01.924Z,20.1
2022-08-09T03:12:05.133Z,20.2
2022-08-09T03:13:01.420Z,20.2
2022-08-09T03:14:02.394Z,20.2
2022-08-09T03:15:02.235Z,20.1
2022-08-09T03:16:05.093Z,20.1
2022-08-09T03:17:02.133Z,19.9
2022-08-09T03:18:01.748Z,20.1
2022-08-09T03:19:01.752Z,20.2
2022-08-09T03:20:03.124Z,20.1
2022-08-09T03:21:02.297Z,20
2022-08-09T03:22:03.030Z,20.1
2022-08-09T03:23:13.716Z,20.2
2022-08-09T03:24:04.134Z,20.1
2022-08-09T03:25:02.659Z,20.2
2022-08-09T03:26:03.799Z,20
2022-08-09T03:27:02.259Z,19.7
2022-08-09T03:28:01.946Z,20
2022-08-09T03:29:02.164Z,20.1
2022-08-09T03:30:01.945Z,20.1
2022-08-09T03:31:04.354Z,20.1
2022-08-09T03:32:01.969Z,20
2022-08-09T03:33:05.852Z,20.1
2022-08-09T03:34:02.145Z,20
2022-08-09T03:35:01.816Z,20.1
2022-08-09T03:36:12.173Z,20.1
2022-08-09T03:37:02.285Z,20.1
2022-08-09T03:38:02.160Z,20.1
2022-08-09T03:39:01.823Z,20
2022-08-09T03:40:01.819Z,20
2022-08-09T03:41:01.589Z,20.1
2022-08-09T03:42:06.311Z,20.2
2022-08-09T03:43:01.706Z,20
2022-08-09T03:44:03.875Z,19.9
2022-08-09T03:45:01.384Z,20.1
2022-08-09T03:46:03.403Z,20.2
2022-08-09T03:47:01.794Z,20.2
2022-08-09T03:48:01.832Z,20
2022-08-09T03:49:03.871Z,20
2022-08-09T03:50:02.467Z,19.9
2022-08-09T03:51:02.219Z,19.1
2022-08-09T03:52:03.607Z,19.2
2022-08-09T03:53:01.456Z,18.9
2022-08-09T03:54:01.955Z,18.5
2022-08-09T03:55:01.749Z,18.5
2022-08-09T03:56:01.601Z,17.8
2022-08-09T03:57:01.609Z,18.7
2022-08-09T03:58:03.603Z,19.3
2022-08-09T03:59:01.584Z,19.4
2022-08-09T04:00:01.991Z,19.5
2022-08-09T04:01:01.511Z,19.7
2022-08-09T04:02:02.221Z,19.7
2022-08-09T04:03:02.225Z,19.8
2022-08-09T04:04:03.829Z,19.7
2022-08-09T04:05:06.231Z,19.3
2022-08-09T04:06:01.656Z,19.5
2022-08-09T04:07:01.638Z,19.6
2022-08-09T04:08:01.496Z,19.8
2022-08-09T04:09:01.927Z,19.8
2022-08-09T04:10:01.855Z,19.9
2022-08-09T04:11:02.138Z,19.9
2022-08-09T04:12:02.584Z,19.9
2022-08-09T04:13:03.896Z,20
2022-08-09T04:14:38.051Z,20
2022-08-09T04:15:11.312Z,19.9
2022-08-09T04:16:19.023Z,20
2022-08-09T04:17:02.379Z,20
2022-08-09T04:18:02.294Z,20
2022-08-09T04:19:02.264Z,20.2
2022-08-09T04:20:02.484Z,20.2
2022-08-09T04:21:01.292Z,20.1
2022-08-09T04:22:02.132Z,19.8
2022-08-09T04:23:02.166Z,20
2022-08-09T04:24:02.089Z,20.1
2022-08-09T04:25:02.891Z,19.5
2022-08-09T04:26:01.924Z,18.8
2022-08-09T04:27:01.436Z,19.2
2022-08-09T04:28:02.611Z,19.1
2022-08-09T04:29:05.314Z,19.3
2022-08-09T04:30:02.317Z,20
2022-08-09T04:31:05.616Z,19.6
2022-08-09T04:32:02.215Z,20
2022-08-09T04:33:01.821Z,20.1
2022-08-09T04:34:01.809Z,20.4
2022-08-09T04:35:01.734Z,20.1
2022-08-09T04:36:01.527Z,20.1
2022-08-09T04:37:02.117Z,20.2
2022-08-09T04:38:03.496Z,20.2
2022-08-09T04:39:01.655Z,20.3
2022-08-09T04:40:02.117Z,20.4
2022-08-09T04:41:01.524Z,20.4
2022-08-09T04:42:02.525Z,20.6
2022-08-09T04:43:01.558Z,20.2
2022-08-09T04:44:05.388Z,19.9
2022-08-09T04:45:01.791Z,20.2
2022-08-09T04:46:02.233Z,20.3
2022-08-09T04:47:04.256Z,20.1
2022-08-09T04:48:04.117Z,20.5
2022-08-09T04:49:02.036Z,20
2022-08-09T04:50:02.351Z,19.5
2022-08-09T04:51:02.238Z,19.9
2022-08-09T04:52:02.109Z,19.8
2022-08-09T04:53:02.083Z,19.6
2022-08-09T04:54:01.535Z,19.9
2022-08-09T04:55:02.018Z,20
2022-08-09T04:56:02.014Z,19.7
2022-08-09T04:57:03.747Z,19.8
2022-08-09T04:58:01.947Z,19.9
2022-08-09T04:59:04.871Z,20.4
2022-08-09T05:00:02.370Z,20.1
2022-08-09T05:01:02.283Z,20.4
2022-08-09T05:02:02.664Z,19.7
2022-08-09T05:03:13.432Z,19.6
2022-08-09T05:04:02.907Z,19.9
2022-08-09T05:05:04.244Z,19.3
2022-08-09T05:06:04.311Z,19.4
2022-08-09T05:07:02.270Z,19.8
2022-08-09T05:08:01.651Z,20.5
2022-08-09T05:09:01.649Z,20.7
2022-08-09T05:10:02.312Z,19.8
2022-08-09T05:11:02.333Z,19.6
2022-08-09T05:12:01.557Z,19.4
2022-08-09T05:13:03.758Z,20.3
2022-08-09T05:14:01.794Z,19.9
2022-08-09T05:15:01.361Z,20.4
2022-08-09T05:16:01.806Z,20.6
2022-08-09T05:17:01.667Z,20.6
2022-08-09T05:18:40.261Z,20.5
2022-08-09T05:19:01.367Z,20.2
2022-08-09T05:20:01.764Z,20.4
2022-08-09T05:21:01.772Z,20.7
2022-08-09T05:22:02.074Z,20.9
2022-08-09T05:23:50.766Z,20.5
2022-08-09T05:24:02.649Z,20.6
2022-08-09T05:25:02.408Z,21
2022-08-09T05:26:02.039Z,20.5
2022-08-09T05:27:01.427Z,20.9
2022-08-09T05:28:02.346Z,21.2
2022-08-09T05:29:01.844Z,21
2022-08-09T05:30:02.236Z,20.7
2022-08-09T05:31:01.902Z,20.8
2022-08-09T05:32:01.762Z,20.5
2022-08-09T05:33:01.825Z,20.4
2022-08-09T05:34:01.762Z,20.7
2022-08-09T05:35:01.775Z,20.7
2022-08-09T05:36:01.615Z,20.8
2022-08-09T05:37:02.524Z,20.7
2022-08-09T05:38:02.106Z,21.1
2022-08-09T05:39:02.329Z,20.8
2022-08-09T05:40:02.090Z,20.7
2022-08-09T05:41:01.381Z,20.8
2022-08-09T05:42:04.516Z,21.2
2022-08-09T05:43:01.693Z,20.7
2022-08-09T05:44:01.484Z,20.9
2022-08-09T05:45:02.034Z,21
2022-08-09T05:46:01.643Z,20.6
2022-08-09T05:47:01.438Z,21
2022-08-09T05:48:01.710Z,21.1
2022-08-09T05:49:01.534Z,21.3
2022-08-09T05:50:19.621Z,21.3
2022-08-09T05:51:17.059Z,21.1
2022-08-09T05:52:02.251Z,20.8
2022-08-09T05:53:02.161Z,20.8
2022-08-09T05:54:01.872Z,20.5
2022-08-09T05:55:02.951Z,20.8
2022-08-09T05:56:02.045Z,20.8
2022-08-09T05:57:01.920Z,20.7
2022-08-09T05:58:01.921Z,21
2022-08-09T05:59:01.721Z,20.9
2022-08-09T06:00:01.576Z,21.5
2022-08-09T06:01:01.508Z,21.3
2022-08-09T06:02:02.029Z,21.1
2022-08-09T06:03:01.932Z,21.4
2022-08-09T06:04:02.046Z,21.3
2022-08-09T06:05:01.865Z,21.3
2022-08-09T06:06:04.823Z,21.1
2022-08-09T06:07:01.611Z,21.4
2022-08-09T06:08:05.103Z,21.2
2022-08-09T06:09:02.025Z,21.6
2022-08-09T06:10:03.056Z,21.6
2022-08-09T06:11:02.057Z,21.1
2022-08-09T06:12:02.341Z,21.2
2022-08-09T06:13:03.239Z,21.2
2022-08-09T06:14:01.744Z,21.6
2022-08-09T06:15:03.296Z,21.3
2022-08-09T06:16:04.628Z,21.4
2022-08-09T06:17:05.142Z,21.4
2022-08-09T06:18:01.987Z,21.5
2022-08-09T06:19:01.905Z,21.5
2022-08-09T06:20:01.788Z,21.8
2022-08-09T06:21:01.674Z,21.3
2022-08-09T06:22:02.029Z,21.5
2022-08-09T06:23:02.084Z,21.8
2022-08-09T06:24:02.631Z,21.6
2022-08-09T06:25:01.639Z,21.9
2022-08-09T06:26:01.501Z,21.7
2022-08-09T06:27:02.120Z,21.9
2022-08-09T06:28:01.971Z,21.9
2022-08-09T06:29:04.843Z,21.9
2022-08-09T06:30:04.760Z,21.9
2022-08-09T06:31:02.123Z,22
2022-08-09T06:32:09.077Z,22
2022-08-09T06:33:13.906Z,21.8
2022-08-09T06:34:01.670Z,21.9
2022-08-09T06:35:01.727Z,21.8
2022-08-09T06:36:01.816Z,22
2022-08-09T06:37:01.969Z,21.7
2022-08-09T06:38:05.592Z,21.9
2022-08-09T06:39:02.545Z,21.9
2022-08-09T06:40:05.709Z,21.9
2022-08-09T06:41:02.278Z,21.7
2022-08-09T06:42:08.437Z,21.9
2022-08-09T06:43:02.352Z,22
2022-08-09T06:44:02.002Z,22.2
2022-08-09T06:45:04.716Z,22.1
2022-08-09T06:46:05.664Z,22
2022-08-09T06:47:01.902Z,22.1
2022-08-09T06:48:01.792Z,22.2
2022-08-09T06:49:01.631Z,22.2
2022-08-09T06:50:12.346Z,22.2
2022-08-09T06:51:04.531Z,22.1
2022-08-09T06:52:02.237Z,22.2
2022-08-09T06:53:02.142Z,22.4
2022-08-09T06:54:02.030Z,22.4
2022-08-09T06:55:06.690Z,22.4
2022-08-09T06:56:02.021Z,22.2
2022-08-09T06:57:01.914Z,22.3
2022-08-09T06:58:04.088Z,22.5
2022-08-09T07:00:47.926Z,22.4
2022-08-09T07:00:53.437Z,22.5
2022-08-09T07:01:00.459Z,22.4
2022-08-09T07:02:03.784Z,22.5
2022-08-09T07:03:01.555Z,22.6
2022-08-09T07:04:03.833Z,22.7
2022-08-09T07:05:01.552Z,22.8
2022-08-09T07:06:03.325Z,22.7
2022-08-09T07:07:04.672Z,22.7
2022-08-09T07:08:02.149Z,22.6
2022-08-09T07:09:01.561Z,22.7
2022-08-09T07:10:12.757Z,22.8
2022-08-09T07:11:01.692Z,22.6
2022-08-09T07:12:01.819Z,22.6
2022-08-09T07:13:05.311Z,22.7
2022-08-09T07:14:04.708Z,22.9
2022-08-09T07:15:03.439Z,23
2022-08-09T07:16:40.801Z,23
2022-08-09T07:17:01.467Z,22.7
2022-08-09T07:18:01.979Z,22.8
2022-08-09T07:19:02.020Z,22.7
2022-08-09T07:20:01.853Z,22.7
2022-08-09T07:21:02.029Z,23
2022-08-09T07:22:02.092Z,22.9
2022-08-09T07:23:02.028Z,23
2022-08-09T07:24:01.515Z,23.1
2022-08-09T07:25:01.842Z,23.1
2022-08-09T07:26:02.520Z,23
2022-08-09T07:27:01.813Z,23.1
2022-08-09T07:28:04.291Z,23.2
2022-08-09T07:29:09.500Z,23.1
2022-08-09T07:30:01.588Z,23.1
2022-08-09T07:31:02.238Z,23.2
2022-08-09T07:32:01.312Z,23.4
2022-08-09T07:33:02.222Z,23.4
2022-08-09T07:34:01.340Z,23.5
2022-08-09T07:35:02.632Z,23.5
2022-08-09T07:36:02.147Z,23.5
2022-08-09T07:37:02.592Z,23.5
2022-08-09T07:38:01.516Z,23.6
2022-08-09T07:39:02.306Z,23.6
2022-08-09T07:40:01.556Z,23.7
2022-08-09T07:41:12.176Z,23.6
2022-08-09T07:42:01.397Z,23.7
2022-08-09T07:43:02.232Z,23.7
2022-08-09T07:44:01.441Z,23.9
2022-08-09T07:45:02.338Z,23.8
2022-08-09T07:46:01.895Z,23.9
2022-08-09T07:47:02.061Z,23.9
2022-08-09T07:48:04.184Z,23.9
2022-08-09T07:49:02.145Z,24.1
2022-08-09T07:52:04.176Z,24.2
2022-08-09T07:53:02.935Z,24
2022-08-09T07:54:04.610Z,24
2022-08-09T07:55:01.336Z,24.3
2022-08-09T07:56:03.062Z,24.3
2022-08-09T07:57:01.519Z,24.4
2022-08-09T07:58:01.705Z,24.3
2022-08-09T07:59:01.625Z,24.4
2022-08-09T08:00:03.304Z,24.3
2022-08-09T08:01:06.469Z,24
2022-08-09T08:02:02.197Z,24.4
2022-08-09T08:03:01.410Z,24.1
2022-08-09T08:04:01.822Z,24.3
2022-08-09T08:05:01.666Z,24.4
2022-08-09T08:06:01.562Z,24.4
2022-08-09T08:07:09.794Z,24.3
2022-08-09T08:08:06.909Z,24.5
2022-08-09T08:09:04.794Z,24.4
2022-08-09T08:10:08.471Z,24.6
2022-08-09T08:11:03.545Z,24.5
2022-08-09T08:12:11.849Z,24.3
2022-08-09T08:13:01.541Z,24.6
2022-08-09T08:14:01.968Z,24.4
2022-08-09T08:15:02.095Z,24.5
2022-08-09T08:16:02.175Z,24.4
2022-08-09T08:17:07.935Z,24.5
2022-08-09T08:18:01.887Z,24.7
2022-08-09T08:19:02.761Z,24.7
2022-08-09T08:20:02.334Z,24.7
2022-08-09T08:21:02.149Z,24.7
2022-08-09T08:22:02.056Z,24.7
2022-08-09T08:23:03.958Z,24.7
2022-08-09T08:24:11.620Z,24.5
2022-08-09T08:25:01.624Z,24.8
2022-08-09T08:26:06.152Z,24.9
2022-08-09T08:27:02.278Z,25.1
2022-08-09T08:28:02.153Z,25.1
2022-08-09T08:29:02.019Z,25.3
2022-08-09T08:30:03.785Z,25.1
2022-08-09T08:31:06.323Z,25.2
2022-08-09T08:32:02.819Z,25.1
2022-08-09T08:33:01.946Z,25.1
2022-08-09T08:34:02.236Z,25.2
2022-08-09T08:35:02.247Z,25.3
2022-08-09T08:36:03.666Z,25.5
2022-08-09T08:37:02.052Z,25.4
2022-08-09T08:38:04.927Z,25.5
2022-08-09T08:39:01.651Z,25.5
2022-08-09T08:40:01.536Z,25.7
2022-08-09T08:41:05.559Z,25.9
2022-08-09T08:42:01.554Z,25.8
2022-08-09T08:43:01.970Z,25.4
2022-08-09T08:44:02.785Z,25.6
2022-08-09T08:45:11.634Z,25.5
2022-08-09T08:46:04.279Z,25.6
2022-08-09T08:47:02.907Z,25.8
2022-08-09T08:48:01.467Z,25.9
2022-08-09T08:49:02.122Z,26
2022-08-09T08:50:02.556Z,26.2
2022-08-09T08:51:02.057Z,26
2022-08-09T08:52:03.925Z,25.9
2022-08-09T08:53:02.134Z,26
2022-08-09T08:54:04.004Z,26
2022-08-09T08:55:03.834Z,26
2022-08-09T08:56:01.552Z,26.1
2022-08-09T08:57:01.505Z,26
2022-08-09T08:58:02.933Z,26.2
2022-08-09T08:59:02.076Z,26
2022-08-09T09:00:01.344Z,26.3
2022-08-09T09:01:02.046Z,26.4
2022-08-09T09:02:02.406Z,26.4
2022-08-09T09:03:08.527Z,26.4
2022-08-09T09:04:01.664Z,26.1
2022-08-09T09:05:03.163Z,26.2
2022-08-09T09:06:04.523Z,26.1
2022-08-09T09:07:01.372Z,26.4
2022-08-09T09:08:02.003Z,26.4
2022-08-09T09:09:01.860Z,26.2
2022-08-09T09:10:04.897Z,26.4
2022-08-09T09:11:01.784Z,26.6
2022-08-09T09:12:01.352Z,26.3
2022-08-09T09:13:09.198Z,26.4
2022-08-09T09:14:01.701Z,26.8
2022-08-09T09:15:01.551Z,26.7
2022-08-09T09:16:01.464Z,26.3
2022-08-09T09:17:02.260Z,25.8
2022-08-09T09:18:01.673Z,25.6
2022-08-09T09:19:29.231Z,26.1
2022-08-09T09:20:01.553Z,26.2
2022-08-09T09:21:01.410Z,26.4
2022-08-09T09:22:03.023Z,26.7
2022-08-09T09:23:02.343Z,26.6
2022-08-09T09:24:04.561Z,26.6
2022-08-09T09:25:01.612Z,26.7
2022-08-09T09:26:09.837Z,26.3
2022-08-09T09:27:01.397Z,26.1
2022-08-09T09:28:03.370Z,26.2
2022-08-09T09:29:02.660Z,26.5
2022-08-09T09:30:14.452Z,26.5
2022-08-09T09:31:02.051Z,26.9
2022-08-09T09:32:04.271Z,27
2022-08-09T09:33:01.801Z,27.1
2022-08-09T09:34:02.155Z,27.3
2022-08-09T09:35:02.031Z,27.4
2022-08-09T09:36:04.091Z,27
2022-08-09T09:37:01.465Z,26.8
2022-08-09T09:38:01.839Z,26.4
2022-08-09T09:39:01.667Z,26.8
2022-08-09T09:40:02.806Z,26.9
2022-08-09T09:41:01.554Z,26.7
2022-08-09T09:42:02.313Z,26.3
2022-08-09T09:43:01.641Z,26.2
2022-08-09T09:44:10.466Z,26.3
2022-08-09T09:45:03.074Z,26.2
2022-08-09T09:47:01.753Z,26.9
2022-08-09T09:48:02.083Z,26.7
2022-08-09T09:49:02.342Z,27
2022-08-09T09:50:15.579Z,27.4
2022-08-09T09:51:01.512Z,27.5
2022-08-09T09:52:01.453Z,27.6
2022-08-09T09:53:02.296Z,27.4
2022-08-09T09:54:04.762Z,26.8
2022-08-09T09:55:01.684Z,27
2022-08-09T09:56:04.637Z,26.7
2022-08-09T09:58:02.161Z,26.7
2022-08-09T09:58:17.619Z,27
2022-08-09T09:59:01.471Z,27.5
2022-08-09T10:00:02.345Z,27.6
2022-08-09T10:01:01.535Z,27.8
2022-08-09T10:02:02.012Z,27.5
2022-08-09T10:03:09.307Z,27.7
2022-08-09T10:04:04.307Z,27.8
2022-08-09T10:05:01.806Z,27.9
2022-08-09T10:06:04.205Z,28.1
2022-08-09T10:07:03.416Z,27.9
2022-08-09T10:08:11.214Z,28.3
2022-08-09T10:09:02.806Z,27.9
2022-08-09T10:10:03.025Z,26.9
2022-08-09T10:11:06.924Z,27.7
2022-08-09T10:12:12.794Z,27.9
2022-08-09T10:13:02.098Z,28.1
2022-08-09T10:14:01.984Z,27.6
2022-08-09T10:15:01.844Z,27.6
2022-08-09T10:16:09.748Z,27.5
2022-08-09T10:17:05.342Z,27.6
2022-08-09T10:18:01.505Z,28.4
2022-08-09T10:19:02.228Z,28.6
2022-08-09T10:20:02.010Z,28.3
2022-08-09T10:21:01.880Z,28.4
2022-08-09T10:22:02.014Z,28.5
2022-08-09T10:23:01.845Z,28
2022-08-09T10:24:03.831Z,27.9
2022-08-09T10:25:03.674Z,27.9
2022-08-09T10:26:04.604Z,28.5
2022-08-09T10:27:01.702Z,28.7
2022-08-09T10:28:01.882Z,28.7
2022-08-09T10:29:13.672Z,29
2022-08-09T10:30:29.935Z,29
2022-08-09T10:32:38.479Z,28.9
2022-08-09T10:33:01.395Z,28.9
2022-08-09T10:34:05.377Z,29.3
2022-08-09T10:35:01.387Z,29
2022-08-09T10:36:02.278Z,28.5
2022-08-09T10:37:01.794Z,28.2
2022-08-09T10:38:01.646Z,28.3
2022-08-09T10:39:01.906Z,27.5
2022-08-09T10:40:01.809Z,27.5
2022-08-09T10:41:01.884Z,27.8
2022-08-09T10:42:01.465Z,27.5
2022-08-09T10:43:01.696Z,28.1
2022-08-09T10:44:02.402Z,28.1
2022-08-09T10:45:02.340Z,28.2
2022-08-09T10:46:02.168Z,28.6
2022-08-09T10:47:03.903Z,28.5
2022-08-09T10:48:13.520Z,28.5
2022-08-09T10:49:01.846Z,28.2
2022-08-09T10:50:01.773Z,28.4
2022-08-09T10:51:02.037Z,29
2022-08-09T10:52:02.147Z,29.4
2022-08-09T10:53:02.005Z,29.5
2022-08-09T10:54:02.143Z,29.7
2022-08-09T10:55:01.840Z,29.4
2022-08-09T10:56:01.702Z,29.7
2022-08-09T10:57:02.232Z,29.8
2022-08-09T10:58:02.277Z,29.9
2022-08-09T10:59:01.475Z,29.8
2022-08-09T11:00:01.521Z,29.8
2022-08-09T11:03:02.322Z,30
2022-08-09T11:03:07.118Z,28.7
2022-08-09T11:03:07.178Z,29.3
2022-08-09T11:04:03.777Z,28.5
2022-08-09T11:05:01.766Z,28.1
2022-08-09T11:06:01.786Z,27.8
2022-08-09T11:07:01.938Z,27.9
2022-08-09T11:08:01.675Z,27.8
2022-08-09T11:09:15.613Z,27.7
2022-08-09T11:10:02.139Z,27.6
2022-08-09T11:11:08.680Z,27.5
2022-08-09T11:12:01.832Z,27.5
2022-08-09T11:13:01.797Z,27.1
2022-08-09T11:14:01.518Z,27
2022-08-09T11:15:01.675Z,26.7
2022-08-09T11:16:05.036Z,26.6
2022-08-09T11:17:01.828Z,26.7
2022-08-09T11:18:02.609Z,26.6
2022-08-09T11:19:01.803Z,26
2022-08-09T11:20:07.628Z,26.1
2022-08-09T11:21:01.839Z,26.1
2022-08-09T11:22:05.720Z,26.2
2022-08-09T11:23:02.842Z,26.6
2022-08-09T11:24:01.905Z,26.8
2022-08-09T11:25:02.322Z,27.3
2022-08-09T11:26:02.154Z,27.6
2022-08-09T11:27:03.669Z,27.9
2022-08-09T11:28:03.511Z,27.7
2022-08-09T11:29:01.393Z,28
2022-08-09T11:30:05.362Z,28.3
2022-08-09T11:31:01.736Z,28.1
2022-08-09T11:32:01.644Z,28.4
2022-08-09T11:33:01.629Z,28.5
2022-08-09T11:34:01.532Z,28.9
2022-08-09T11:35:01.359Z,28.9
2022-08-09T11:36:01.727Z,29.3
2022-08-09T11:37:01.452Z,29.6
2022-08-09T11:38:01.406Z,29.5
2022-08-09T11:39:01.952Z,28.9
2022-08-09T11:40:01.864Z,28.5
2022-08-09T11:41:01.729Z,29.5
2022-08-09T11:42:01.616Z,29.5
2022-08-09T11:43:01.477Z,29.3
2022-08-09T11:44:02.375Z,29.3
2022-08-09T11:45:02.217Z,29
2022-08-09T11:46:01.519Z,28.7
2022-08-09T11:47:01.390Z,28.7
2022-08-09T11:48:04.330Z,28.3
2022-08-09T11:49:04.880Z,28.1
2022-08-09T11:50:54.619Z,27.6
2022-08-09T11:51:38.174Z,27
2022-08-09T11:52:57.203Z,27.2
2022-08-09T11:53:16.838Z,27.5
2022-08-09T11:54:03.424Z,27.4
2022-08-09T11:55:02.121Z,27.8
2022-08-09T11:56:02.283Z,27.4
2022-08-09T11:57:01.948Z,27.3
2022-08-09T11:58:02.909Z,27.3
2022-08-09T11:59:02.006Z,27.3
2022-08-09T12:00:02.159Z,27.2
2022-08-09T12:01:01.730Z,26.9
2022-08-09T12:02:16.732Z,26.7
2022-08-09T12:03:10.097Z,26.4
2022-08-09T12:04:02.150Z,26.3
2022-08-09T12:07:01.781Z,26.5
2022-08-09T12:08:02.181Z,26.6
2022-08-09T12:09:02.019Z,26.5
2022-08-09T12:10:02.261Z,26.5
2022-08-09T12:11:01.467Z,26.3
2022-08-09T12:12:02.804Z,26.6
2022-08-09T12:13:03.590Z,26.4
2022-08-09T12:14:08.766Z,26.5
2022-08-09T12:15:04.615Z,26.5
2022-08-09T12:16:03.040Z,26.4
2022-08-09T12:17:01.480Z,26.5
2022-08-09T12:18:01.343Z,26.4
2022-08-09T12:19:02.220Z,26.1
2022-08-09T12:20:01.789Z,26.2
2022-08-09T12:21:02.641Z,26.3
2022-08-09T12:22:01.610Z,26.6
2022-08-09T12:23:02.176Z,26.6
2022-08-09T12:24:06.661Z,26.6
2022-08-09T12:25:01.916Z,27
2022-08-09T12:26:02.096Z,27
2022-08-09T12:28:57.944Z,26.7
2022-08-09T12:29:01.168Z,26.5
2022-08-09T12:29:15.736Z,26.3
2022-08-09T12:30:35.201Z,26.1
2022-08-09T12:31:02.177Z,26.2
2022-08-09T12:32:03.461Z,26.2
2022-08-09T12:33:01.563Z,25.9
2022-08-09T12:34:01.575Z,26
2022-08-09T12:35:02.879Z,25.8
2022-08-09T12:36:01.709Z,25.9
2022-08-09T12:37:09.937Z,25.9
2022-08-09T12:38:02.310Z,25.9
2022-08-09T12:39:01.764Z,25.8
2022-08-09T12:40:02.145Z,25.7
2022-08-09T12:41:02.020Z,25.7
2022-08-09T12:42:01.648Z,25.5
2022-08-09T12:43:01.530Z,25.4
2022-08-09T12:44:04.470Z,25.4
2022-08-09T12:45:01.742Z,25.7
2022-08-09T12:46:01.566Z,25.7
2022-08-09T12:47:01.709Z,25.9
2022-08-09T12:48:02.157Z,26
2022-08-09T12:49:02.042Z,26.1
2022-08-09T12:50:01.904Z,26
2022-08-09T12:51:03.787Z,26.3
2022-08-09T12:52:03.550Z,26.2
2022-08-09T12:53:08.393Z,25.8
2022-08-09T12:54:01.496Z,26
2022-08-09T12:56:11.275Z,25.9
2022-08-09T12:56:13.602Z,26.1
2022-08-09T12:57:01.843Z,25.9
2022-08-09T12:58:02.246Z,25.8
2022-08-09T12:59:02.285Z,26.1
2022-08-09T13:00:03.555Z,26
2022-08-09T13:01:04.377Z,25.8
2022-08-09T13:02:02.087Z,25.7
2022-08-09T13:03:01.970Z,25.9
2022-08-09T13:04:01.942Z,26
2022-08-09T13:05:02.430Z,26
2022-08-09T13:06:12.997Z,26
2022-08-09T13:07:02.158Z,26.3
2022-08-09T13:08:02.227Z,26.2
2022-08-09T13:09:02.116Z,26.3
2022-08-09T13:10:01.812Z,25.8
2022-08-09T13:11:01.512Z,26.1
2022-08-09T13:12:02.447Z,26.1
2022-08-09T13:13:10.383Z,26.2
2022-08-09T13:14:38.109Z,26.4
2022-08-09T13:15:01.505Z,26.3
2022-08-09T13:16:01.586Z,26.2
2022-08-09T13:17:02.275Z,26
2022-08-09T13:18:03.945Z,26.1
2022-08-09T13:19:02.292Z,25.9
2022-08-09T13:20:08.262Z,26.2
2022-08-09T13:21:04.625Z,26.2
2022-08-09T13:22:35.136Z,26.2
2022-08-09T13:23:05.951Z,26.1
2022-08-09T13:24:06.448Z,26.3
2022-08-09T13:25:03.499Z,26.2
2022-08-09T13:26:01.843Z,26.2
2022-08-09T13:27:04.669Z,25.9
2022-08-09T13:28:02.189Z,26.1
2022-08-09T13:29:02.094Z,25.9
2022-08-09T13:30:03.432Z,26.1
2022-08-09T13:31:53.691Z,26.1